Cincinnati, Ohio
Current Conditions -  °F | °C
As of 10:53 PM on Tuesday 25 Nov 2014 (Local Time) from KLUK Reporting Station
Clear Clear  
Wind Chill: 29°   Ceiling: Unl
Heat Index: 33°   Visibility: 10mi
Dew Point: 27°   Wind: 5mph
Humidity: 78%   Direction: 360°N
Pressure: 30.2"   Gusts: NA
Location:  39.11°N, 84.5°W
Report Text: KLUK 260353Z 36004KT 10SM CLR 01/M03 A3020 RMK AO2 SLP231 T00061028
Loading
Personal Weather Stations






























Interactive Weather Map New forecast layout! Learn more

10-Day Weather Forecast

Advertisements
Track Severe Weather on mobile